O'Brien, TX (79539)

6:46 PM CDT on September 18, 2014 (GMT -0500)
WT_Meso 3NW Knox City | Change Station
CLOSE
Current Station
Personal Weather Station
Location: Knox City, TX
Elevation: 1470 ft
Nearby Weather Stations

Elev 1470 ft 33.45 °N, 99.86 °W | Updated 51 minutes ago

Overcast
Overcast
72 °F
Feels Like 72 °F
N
4
Wind Variable Wind from NE
Gusts 5.0 mph

Today
High -- | Low -- °F
--% Chance of Precip.
Yesterday
High -- | Low -- °F
Precip. -- in
7:24 AM 7:41 PM
Waning Crescent, 23% visible
Pressure 29.81 in
Visibility 10.0 miles
Clouds Mostly Cloudy 8500 ft
Overcast 12000 ft
Heat Index 72 °F
Dew Point 66 °F
Humidity 82%
Rainfall -999.00 in
Snow Depth Not available.
UV 0 out of 12
Pollen 8.20 out of 12
Air Quality Not available.
Flu Activity Not available.
METAR KDYS 182258Z 11004KT 10SM BKN085 OVC120 21/18 A2991 RMK AO2A SLP093 T02120179 $

More Conditions Fewer Conditions

Pressure 29.81 in
Visibility 10.0 miles
Clouds Mostly Cloudy 8500 ft
Overcast 12000 ft
Heat Index 72 °F
Dew Point 66 °F
Humidity 82%
Rainfall -999.00 in
Snow Depth Not available.
UV 0 out of 12
Pollen 8.20 out of 12
Air Quality Not available.
Flu Activity Not available.
METAR KDYS 182258Z 11004KT 10SM BKN085 OVC120 21/18 A2991 RMK AO2A SLP093 T02120179 $

More Conditions Fewer Conditions

Nowcast | as of 5:52 PM CDT on September 18, 2014

An area of moderate to heavy rainfall continues to move east across west central Texas...mainly south and east of a line from Baird...to Ballinger...to Christoval. These showers and thunderstorms will continue through mid evening. Rainfall amounts will between a half inch to one inch...with locally higher amounts up to two inches possible. Ponding of water on roadways and low lying areas will be possible...along with reduced visibilities and occasional cloud to ground lightning.

×

10-Day Weather Forecast

Almanac

Astronomy

Sep. 18, 2014 Rise Set
Actual Time 7:24 AM CDT 7:41 PM CDT
Civil Twilight 7:00 AM CDT 8:06 PM CDT
Nautical Twilight 6:31 AM CDT 8:35 PM CDT
Astronomical Twilight 6:01 AM CDT 9:04 PM CDT
Moon 2:30 AM CDT 4:23 PM CDT
Length of Visible Light 13h 06m
Length of Day
12h 16m
Tomorrow will be 2m 2s shorter.
Waning Crescent, 23% of the Moon is Illuminated
Today
Waning Crescent
Sep 24
New
Oct 1
First Quarter
Oct 8
Full
Oct 15
Last Quarter

Today's Extremes

State Highs State Lows

Community

WunderPhotos

Upload Photos

1,754,489 photos uploaded!

WunderBlogs® & News

Nearby

Snow Depth

Station Depth Elevation
No new snow has been reported.

Earthquake Activity

City Distance Mag. Time & Date
No recent earthquake activity has been reported nearby.
Minimum magnitude displayed is 2.5.

Coastal Water Temperatures

Place Temperature
No Stations Reporting

Nearby Weather Stations